createdAt,value
2023-02-03T00:02:56.166Z,83
2023-02-03T00:05:56.165Z,83
2023-02-03T00:08:56.178Z,83
2023-02-03T00:11:56.151Z,84
2023-02-03T00:14:56.162Z,84
2023-02-03T00:17:56.157Z,84
2023-02-03T00:20:56.138Z,84
2023-02-03T00:23:56.156Z,84
2023-02-03T00:26:56.155Z,84
2023-02-03T00:29:56.209Z,84
2023-02-03T00:32:56.151Z,84
2023-02-03T00:35:56.166Z,84
2023-02-03T00:38:56.154Z,84
2023-02-03T00:41:56.159Z,84
2023-02-03T00:44:56.159Z,84
2023-02-03T00:47:56.163Z,84
2023-02-03T00:50:56.154Z,84
2023-02-03T00:53:56.180Z,84
2023-02-03T00:56:56.155Z,84
2023-02-03T01:02:56.159Z,84
2023-02-03T01:05:56.158Z,84
2023-02-03T01:08:56.164Z,84
2023-02-03T01:11:56.159Z,84
2023-02-03T01:14:56.169Z,84
2023-02-03T01:20:56.159Z,84
2023-02-03T01:26:56.155Z,84
2023-02-03T01:29:56.161Z,84
2023-02-03T01:32:56.174Z,84
2023-02-03T01:35:56.164Z,84
2023-02-03T01:38:56.245Z,84
2023-02-03T01:41:56.159Z,84
2023-02-03T01:44:56.163Z,84
2023-02-03T01:50:56.167Z,84
2023-02-03T01:53:56.175Z,84
2023-02-03T01:56:56.161Z,84
2023-02-03T01:59:56.166Z,84
2023-02-03T02:02:56.236Z,84
2023-02-03T02:05:56.180Z,84
2023-02-03T02:08:56.184Z,84
2023-02-03T02:11:56.179Z,84
2023-02-03T02:14:56.182Z,84
2023-02-03T02:17:56.187Z,84
2023-02-03T02:20:56.188Z,84
2023-02-03T02:23:56.193Z,84
2023-02-03T02:26:56.199Z,84
2023-02-03T02:29:56.187Z,84
2023-02-03T02:32:56.184Z,84
2023-02-03T02:35:56.188Z,85
2023-02-03T02:38:56.185Z,85
2023-02-03T02:41:56.184Z,84
2023-02-03T02:44:56.185Z,84
2023-02-03T02:47:56.201Z,84
2023-02-03T02:50:56.190Z,85
2023-02-03T02:53:56.199Z,85
2023-02-03T02:56:56.186Z,85
2023-02-03T02:59:56.208Z,85
2023-02-03T03:02:56.197Z,85
2023-02-03T03:05:56.222Z,85
2023-02-03T03:08:56.215Z,85
2023-02-03T03:11:56.211Z,85
2023-02-03T03:14:56.224Z,85
2023-02-03T03:17:56.220Z,85
2023-02-03T03:20:56.222Z,85
2023-02-03T03:23:56.202Z,85
2023-02-03T03:26:56.243Z,85
2023-02-03T03:29:56.223Z,85
2023-02-03T03:32:56.201Z,85
2023-02-03T03:35:56.207Z,85
2023-02-03T03:38:56.223Z,85
2023-02-03T03:41:56.232Z,85
2023-02-03T03:44:56.238Z,85
2023-02-03T03:47:56.196Z,85
2023-02-03T03:50:56.221Z,85
2023-02-03T03:53:56.208Z,85
2023-02-03T03:56:56.264Z,85
2023-02-03T03:59:56.211Z,85
2023-02-03T04:02:56.248Z,85
2023-02-03T04:05:56.229Z,85
2023-02-03T04:08:56.264Z,85
2023-02-03T04:11:56.231Z,85
2023-02-03T04:14:56.216Z,85
2023-02-03T04:17:56.222Z,85
2023-02-03T04:20:56.226Z,85
2023-02-03T04:23:56.216Z,85
2023-02-03T04:26:56.237Z,85
2023-02-03T04:29:56.226Z,85
2023-02-03T04:32:56.230Z,85
2023-02-03T04:35:56.237Z,85
2023-02-03T04:38:56.236Z,85
2023-02-03T04:41:56.247Z,85
2023-02-03T04:44:56.241Z,85
2023-02-03T04:47:56.222Z,85
2023-02-03T04:50:56.242Z,85
2023-02-03T04:53:56.224Z,85
2023-02-03T04:56:56.261Z,85
2023-02-03T04:59:56.224Z,85
2023-02-03T05:02:56.319Z,86
2023-02-03T05:05:56.239Z,86
2023-02-03T05:08:56.232Z,86
2023-02-03T05:11:56.240Z,86
2023-02-03T05:14:56.229Z,86
2023-02-03T05:17:56.234Z,86
2023-02-03T05:20:56.227Z,86
2023-02-03T05:23:56.232Z,86
2023-02-03T05:26:56.262Z,86
2023-02-03T05:29:56.231Z,86
2023-02-03T05:32:56.231Z,86
2023-02-03T05:35:56.246Z,86
2023-02-03T05:38:56.240Z,86
2023-02-03T05:41:58.249Z,86
2023-02-03T05:44:56.245Z,86
2023-02-03T05:47:56.235Z,86
2023-02-03T05:50:56.240Z,86
2023-02-03T05:53:56.230Z,86
2023-02-03T05:56:56.258Z,86
2023-02-03T05:59:56.257Z,86
2023-02-03T06:02:56.235Z,86
2023-02-03T06:05:56.231Z,86
2023-02-03T06:11:56.241Z,86
2023-02-03T06:14:56.245Z,86
2023-02-03T06:17:56.239Z,86
2023-02-03T06:20:56.242Z,86
2023-02-03T06:23:56.409Z,86
2023-02-03T06:26:56.249Z,86
2023-02-03T06:29:56.231Z,86
2023-02-03T06:32:56.247Z,86
2023-02-03T06:35:56.230Z,86
2023-02-03T06:38:56.233Z,86
2023-02-03T06:41:56.242Z,86
2023-02-03T06:44:56.232Z,86
2023-02-03T06:47:56.244Z,86
2023-02-03T06:50:56.236Z,86
2023-02-03T06:53:56.236Z,86
2023-02-03T06:56:56.259Z,86
2023-02-03T06:59:56.239Z,86
2023-02-03T07:02:56.314Z,86
2023-02-03T07:05:56.231Z,86
2023-02-03T07:08:56.237Z,86
2023-02-03T07:11:56.250Z,86
2023-02-03T07:14:56.246Z,86
2023-02-03T07:17:56.244Z,86
2023-02-03T07:20:56.242Z,86
2023-02-03T07:23:56.245Z,86
2023-02-03T07:26:56.268Z,86
2023-02-03T07:29:56.242Z,86
2023-02-03T07:32:56.253Z,86
2023-02-03T07:35:56.250Z,86
2023-02-03T07:38:56.256Z,86
2023-02-03T07:41:56.266Z,86
2023-02-03T07:44:56.266Z,86
2023-02-03T07:47:56.246Z,86
2023-02-03T07:50:56.250Z,86
2023-02-03T07:53:56.265Z,86
2023-02-03T07:56:56.269Z,86
2023-02-03T07:59:56.264Z,86
2023-02-03T08:02:56.252Z,86
2023-02-03T08:05:56.269Z,86
2023-02-03T08:08:56.244Z,86
2023-02-03T08:11:56.264Z,86
2023-02-03T08:14:56.256Z,86
2023-02-03T08:17:56.247Z,86
2023-02-03T08:20:56.277Z,86
2023-02-03T08:23:56.260Z,86
2023-02-03T08:26:56.274Z,86
2023-02-03T08:29:56.263Z,86
2023-02-03T08:35:56.269Z,86
2023-02-03T08:38:56.263Z,86
2023-02-03T08:41:56.282Z,86
2023-02-03T08:44:56.341Z,86
2023-02-03T08:47:56.273Z,85
2023-02-03T08:50:56.265Z,85
2023-02-03T08:53:56.258Z,85
2023-02-03T08:56:56.264Z,85
2023-02-03T08:59:56.263Z,85
2023-02-03T09:02:56.274Z,85
2023-02-03T09:05:56.260Z,85
2023-02-03T09:08:56.263Z,85
2023-02-03T09:11:57.053Z,85
2023-02-03T09:14:56.270Z,85
2023-02-03T09:17:56.281Z,85
2023-02-03T09:20:56.264Z,85
2023-02-03T09:23:56.266Z,85
2023-02-03T09:26:56.281Z,85
2023-02-03T09:29:56.264Z,85
2023-02-03T09:32:56.271Z,84
2023-02-03T09:35:56.275Z,84
2023-02-03T09:38:56.266Z,84
2023-02-03T09:41:56.289Z,84
2023-02-03T09:44:56.277Z,84
2023-02-03T09:47:56.281Z,84
2023-02-03T09:50:56.270Z,84
2023-02-03T09:53:56.285Z,84
2023-02-03T09:56:56.288Z,84
2023-02-03T09:59:56.269Z,84
2023-02-03T10:02:56.338Z,84
2023-02-03T10:05:56.271Z,83
2023-02-03T10:08:56.275Z,83
2023-02-03T10:11:56.284Z,83
2023-02-03T10:14:56.271Z,83
2023-02-03T10:17:56.284Z,83
2023-02-03T10:20:56.279Z,83
2023-02-03T10:23:56.272Z,83
2023-02-03T10:26:56.296Z,83
2023-02-03T10:29:56.272Z,83
2023-02-03T10:32:56.274Z,83
2023-02-03T10:35:56.284Z,83
2023-02-03T10:38:56.282Z,82
2023-02-03T10:41:56.291Z,82
2023-02-03T10:44:56.284Z,82
2023-02-03T10:47:56.285Z,82
2023-02-03T10:50:56.275Z,82
2023-02-03T10:53:56.296Z,82
2023-02-03T10:56:56.281Z,82
2023-02-03T10:59:56.309Z,82
2023-02-03T11:02:56.305Z,82
2023-02-03T11:05:56.274Z,82
2023-02-03T11:08:56.278Z,82
2023-02-03T11:11:56.284Z,82
2023-02-03T11:14:56.280Z,82
2023-02-03T11:17:56.269Z,82
2023-02-03T11:20:56.277Z,82
2023-02-03T11:23:56.284Z,82
2023-02-03T11:26:56.307Z,82
2023-02-03T11:29:56.286Z,82
2023-02-03T11:32:56.284Z,82
2023-02-03T11:35:56.293Z,82
2023-02-03T11:38:56.287Z,82
2023-02-03T11:41:56.309Z,82
2023-02-03T11:44:56.295Z,82
2023-02-03T11:47:56.313Z,82
2023-02-03T11:50:56.286Z,82
2023-02-03T11:53:57.600Z,81
2023-02-03T11:56:56.308Z,82
2023-02-03T11:59:56.302Z,82
2023-02-03T12:02:56.386Z,82
2023-02-03T12:05:56.318Z,82
2023-02-03T12:08:56.287Z,82
2023-02-03T12:11:56.340Z,82
2023-02-03T12:14:56.331Z,82
2023-02-03T12:17:56.337Z,82
2023-02-03T12:20:56.363Z,82
2023-02-03T12:23:56.329Z,82
2023-02-03T12:26:56.352Z,82
2023-02-03T12:29:56.330Z,82
2023-02-03T12:32:56.356Z,82
2023-02-03T12:35:56.337Z,82
2023-02-03T12:38:56.331Z,82
2023-02-03T12:41:56.353Z,82
2023-02-03T12:44:56.334Z,82
2023-02-03T12:47:56.338Z,82
2023-02-03T12:50:56.348Z,82
2023-02-03T12:53:56.333Z,82
2023-02-03T12:56:56.371Z,82
2023-02-03T12:59:56.344Z,82
2023-02-03T13:02:56.365Z,82
2023-02-03T13:05:56.342Z,82
2023-02-03T13:11:56.337Z,83
2023-02-03T13:14:56.336Z,83
2023-02-03T13:17:56.355Z,83
2023-02-03T13:20:56.340Z,83
2023-02-03T13:23:56.337Z,83
2023-02-03T13:26:56.358Z,83
2023-02-03T13:29:56.355Z,83
2023-02-03T13:32:56.400Z,83
2023-02-03T13:35:56.364Z,83
2023-02-03T13:38:56.348Z,83
2023-02-03T13:41:56.339Z,83
2023-02-03T13:44:56.344Z,83
2023-02-03T13:47:56.368Z,84
2023-02-03T13:50:56.349Z,84
2023-02-03T13:53:56.343Z,84
2023-02-03T13:56:56.422Z,84
2023-02-03T13:59:56.362Z,84
2023-02-03T14:02:56.346Z,84
2023-02-03T14:05:56.352Z,84
2023-02-03T14:08:56.350Z,84
2023-02-03T14:11:56.349Z,84
2023-02-03T14:14:56.369Z,84
2023-02-03T14:17:56.349Z,84
2023-02-03T14:20:56.356Z,84
2023-02-03T14:23:56.367Z,85
2023-02-03T14:26:56.353Z,85
2023-02-03T14:29:56.355Z,85
2023-02-03T14:32:56.353Z,85
2023-02-03T14:35:56.365Z,85
2023-02-03T14:38:56.364Z,85
2023-02-03T14:41:56.384Z,85
2023-02-03T14:44:56.358Z,85
2023-02-03T14:47:56.363Z,85
2023-02-03T14:50:56.350Z,85
2023-02-03T14:53:56.384Z,85
2023-02-03T14:56:56.359Z,85
2023-02-03T14:59:56.359Z,86
2023-02-03T15:02:56.371Z,86
2023-02-03T15:05:56.363Z,86
2023-02-03T15:08:56.381Z,86
2023-02-03T15:11:56.386Z,86
2023-02-03T15:14:56.361Z,86
2023-02-03T15:17:56.373Z,86
2023-02-03T15:20:56.384Z,86
2023-02-03T15:23:56.365Z,86
2023-02-03T15:26:56.371Z,86
2023-02-03T15:29:56.367Z,86
2023-02-03T15:32:56.369Z,86
2023-02-03T15:35:56.361Z,86
2023-02-03T15:38:56.361Z,86
2023-02-03T15:41:56.376Z,86
2023-02-03T15:44:56.365Z,86
2023-02-03T15:47:56.375Z,86
2023-02-03T15:50:56.387Z,87
2023-02-03T15:53:56.370Z,87
2023-02-03T15:56:56.385Z,87
2023-02-03T15:59:56.379Z,87
2023-02-03T16:02:56.436Z,87
2023-02-03T16:05:56.369Z,87
2023-02-03T16:08:56.384Z,87
2023-02-03T16:11:56.385Z,87
2023-02-03T16:14:56.390Z,87
2023-02-03T16:17:56.385Z,87
2023-02-03T16:20:56.375Z,87
2023-02-03T16:23:56.389Z,87
2023-02-03T16:26:56.397Z,87
2023-02-03T16:29:56.383Z,87
2023-02-03T16:32:56.384Z,87
2023-02-03T16:35:56.389Z,87
2023-02-03T16:38:56.388Z,87
2023-02-03T16:41:56.415Z,87
2023-02-03T16:44:56.383Z,87
2023-02-03T16:47:56.422Z,87
2023-02-03T16:50:58.284Z,87
2023-02-03T16:53:56.403Z,87
2023-02-03T16:56:57.823Z,87
2023-02-03T16:59:56.402Z,87
2023-02-03T17:02:58.554Z,88
2023-02-03T17:05:56.387Z,88
2023-02-03T17:08:58.570Z,88
2023-02-03T17:11:56.409Z,88
2023-02-03T17:14:57.679Z,88
2023-02-03T17:17:56.401Z,88
2023-02-03T17:20:58.711Z,88
2023-02-03T17:23:56.401Z,88
2023-02-03T17:26:58.066Z,88
2023-02-03T17:29:56.407Z,88
2023-02-03T17:32:59.073Z,88
2023-02-03T17:35:56.395Z,88
2023-02-03T17:53:56.427Z,88
2023-02-03T17:56:56.393Z,88
2023-02-03T17:59:56.382Z,88
2023-02-03T18:02:57.521Z,88
2023-02-03T18:05:56.380Z,88
2023-02-03T18:08:56.428Z,88
2023-02-03T18:11:56.377Z,88
2023-02-03T18:14:57.527Z,88
2023-02-03T18:17:56.381Z,88
2023-02-03T18:20:56.380Z,88
2023-02-03T18:23:56.376Z,88
2023-02-03T18:26:56.374Z,88
2023-02-03T18:29:56.376Z,88
2023-02-03T18:32:56.363Z,88
2023-02-03T18:35:56.363Z,88
2023-02-03T18:38:56.386Z,88
2023-02-03T18:41:56.390Z,88
2023-02-03T18:44:56.382Z,88
2023-02-03T18:47:56.394Z,88
2023-02-03T18:50:56.379Z,88
2023-02-03T18:53:56.400Z,88
2023-02-03T18:56:56.393Z,88
2023-02-03T18:59:56.540Z,88
2023-02-03T19:02:56.426Z,88
2023-02-03T19:05:56.395Z,88
2023-02-03T19:08:56.386Z,88
2023-02-03T19:11:56.405Z,88
2023-02-03T19:14:56.386Z,88
2023-02-03T19:17:56.405Z,88
2023-02-03T19:20:56.407Z,88
2023-02-03T19:23:56.418Z,88
2023-02-03T19:26:56.411Z,87
2023-02-03T19:29:56.414Z,87
2023-02-03T19:32:56.410Z,87
2023-02-03T19:35:56.410Z,87
2023-02-03T19:38:56.416Z,87
2023-02-03T19:41:56.409Z,87
2023-02-03T19:44:56.410Z,87
2023-02-03T19:47:56.399Z,87
2023-02-03T19:50:56.415Z,87
2023-02-03T19:53:56.418Z,87
2023-02-03T19:56:56.413Z,87
2023-02-03T19:59:56.410Z,87
2023-02-03T20:02:56.410Z,87
2023-02-03T20:05:56.424Z,87
2023-02-03T20:08:56.422Z,87
2023-02-03T20:11:56.413Z,87
2023-02-03T20:14:56.412Z,87
2023-02-03T20:17:56.424Z,87
2023-02-03T20:20:56.415Z,87
2023-02-03T20:23:56.428Z,87
2023-02-03T20:26:56.418Z,87
2023-02-03T20:29:56.412Z,87
2023-02-03T20:32:56.419Z,87
2023-02-03T20:35:56.414Z,87
2023-02-03T20:38:56.431Z,87
2023-02-03T20:44:56.418Z,87
2023-02-03T20:47:56.419Z,87
2023-02-03T20:50:56.442Z,87
2023-02-03T20:53:56.429Z,86
2023-02-03T20:56:56.426Z,86
2023-02-03T20:59:56.440Z,86
2023-02-03T21:02:56.426Z,86
2023-02-03T21:05:56.419Z,86
2023-02-03T21:08:56.426Z,86
2023-02-03T21:11:56.432Z,86
2023-02-03T21:14:56.428Z,86
2023-02-03T21:17:56.425Z,86
2023-02-03T21:20:56.441Z,86
2023-02-03T21:23:56.432Z,86
2023-02-03T21:26:56.427Z,86
2023-02-03T21:29:56.454Z,86
2023-02-03T21:32:56.434Z,85
2023-02-03T21:35:56.448Z,85
2023-02-03T21:38:56.445Z,85
2023-02-03T21:41:56.440Z,85
2023-02-03T21:44:56.443Z,85
2023-02-03T21:50:56.434Z,85
2023-02-03T21:53:56.467Z,85
2023-02-03T21:56:56.436Z,85
2023-02-03T21:59:56.453Z,85
2023-02-03T22:02:56.469Z,85
2023-02-03T22:05:56.434Z,85
2023-02-03T22:08:56.458Z,85
2023-02-03T22:11:56.433Z,85
2023-02-03T22:14:56.435Z,85
2023-02-03T22:17:56.442Z,85
2023-02-03T22:20:56.452Z,85
2023-02-03T22:23:56.453Z,85
2023-02-03T22:26:56.438Z,85
2023-02-03T22:29:56.491Z,85
2023-02-03T22:32:56.436Z,85
2023-02-03T22:35:56.433Z,85
2023-02-03T22:38:56.459Z,84
2023-02-03T22:41:56.439Z,84
2023-02-03T22:44:56.454Z,84
2023-02-03T22:47:56.437Z,84
2023-02-03T22:50:56.440Z,84
2023-02-03T22:53:56.460Z,84
2023-02-03T22:56:56.443Z,84
2023-02-03T22:59:56.453Z,84
2023-02-03T23:02:56.449Z,84
2023-02-03T23:05:56.438Z,84
2023-02-03T23:08:56.459Z,84
2023-02-03T23:11:56.446Z,84
2023-02-03T23:14:56.455Z,84
2023-02-03T23:17:56.449Z,84
2023-02-03T23:20:56.462Z,84
2023-02-03T23:23:56.459Z,84
2023-02-03T23:26:56.461Z,84
2023-02-03T23:29:56.522Z,84
2023-02-03T23:32:56.470Z,84
2023-02-03T23:35:56.471Z,84
2023-02-03T23:38:56.476Z,84
2023-02-03T23:44:56.478Z,83
2023-02-03T23:47:56.459Z,83
2023-02-03T23:50:56.476Z,83
2023-02-03T23:53:56.453Z,83
2023-02-03T23:56:56.470Z,83
2023-02-03T23:59:56.466Z,83
